createdAt,value
2023-03-26T00:00:23.782Z,26.09
2023-03-26T00:03:27.052Z,26.02
2023-03-26T00:06:33.067Z,25.88
2023-03-26T00:09:36.889Z,25.60
2023-03-26T00:12:40.163Z,25.20
2023-03-26T00:15:43.392Z,25.19
2023-03-26T00:18:46.994Z,25.10
2023-03-26T00:21:53.279Z,24.94
2023-03-26T00:24:56.747Z,25.03
2023-03-26T00:28:00.197Z,24.67
2023-03-26T00:31:05.779Z,24.31
2023-03-26T00:34:09.056Z,24.28
2023-03-26T00:37:12.634Z,24.18
2023-03-26T00:40:17.231Z,23.87
2023-03-26T00:43:21.485Z,23.81
2023-03-26T00:46:26.110Z,23.93
2023-03-26T00:49:29.461Z,23.92
2023-03-26T00:52:32.869Z,23.91
2023-03-26T00:55:36.667Z,23.67
2023-03-26T00:58:40.506Z,23.25
2023-03-26T01:01:43.805Z,23.21
2023-03-26T01:04:49.243Z,23.06
2023-03-26T01:07:52.728Z,23.01
2023-03-26T01:10:57.570Z,22.77
2023-03-26T01:14:07.907Z,22.61
2023-03-26T01:17:11.322Z,22.61
2023-03-26T01:20:21.166Z,22.36
2023-03-26T01:23:31.619Z,22.16
2023-03-26T01:26:55.229Z,22.10
2023-03-26T01:30:25.125Z,22.16
2023-03-26T01:33:37.593Z,22.19
2023-03-26T01:36:51.006Z,22.07
2023-03-26T01:39:59.809Z,21.57
2023-03-26T01:43:33.384Z,21.64
2023-03-26T01:46:36.842Z,21.41
2023-03-26T01:49:40.201Z,21.37
2023-03-26T01:52:45.864Z,21.47
2023-03-26T01:56:10.472Z,21.39
2023-03-26T01:59:39.688Z,21.19
2023-03-26T02:02:52.458Z,20.97
2023-03-26T02:06:16.576Z,20.89
2023-03-26T02:09:23.256Z,20.81
2023-03-26T02:12:27.008Z,20.89
2023-03-26T02:15:31.547Z,20.70
2023-03-26T02:18:35.077Z,20.74
2023-03-26T02:21:38.228Z,20.63
2023-03-26T02:24:41.493Z,20.49
2023-03-26T02:27:45.615Z,20.47
2023-03-26T02:30:48.903Z,20.37
2023-03-26T02:33:52.438Z,20.38
2023-03-26T02:36:55.730Z,20.32
2023-03-26T02:39:58.897Z,20.37
2023-03-26T02:43:02.122Z,20.16
2023-03-26T02:46:05.581Z,20.26
2023-03-26T02:49:11.847Z,20.44
2023-03-26T02:52:15.143Z,20.34
2023-03-26T02:55:18.466Z,20.25
2023-03-26T02:58:21.652Z,20.50
2023-03-26T03:01:27.955Z,20.57
2023-03-26T03:04:31.257Z,20.40
2023-03-26T03:07:36.825Z,20.32
2023-03-26T03:10:41.691Z,20.34
2023-03-26T03:13:46.019Z,20.34
2023-03-26T03:16:49.334Z,20.44
2023-03-26T03:19:52.808Z,20.41
2023-03-26T03:22:55.970Z,20.32
2023-03-26T03:25:59.534Z,20.38
2023-03-26T03:29:02.866Z,20.32
2023-03-26T03:32:06.258Z,20.11
2023-03-26T03:35:09.868Z,19.89
2023-03-26T03:38:13.199Z,19.94
2023-03-26T03:41:16.545Z,20.01
2023-03-26T03:44:19.819Z,19.90
2023-03-26T03:47:23.155Z,19.61
2023-03-26T03:50:26.516Z,19.46
2023-03-26T03:53:29.742Z,19.47
2023-03-26T03:56:33.160Z,19.73
2023-03-26T03:59:36.418Z,19.73
2023-03-26T04:02:40.184Z,19.77
2023-03-26T04:05:44.479Z,19.60
2023-03-26T04:08:47.845Z,19.25
2023-03-26T04:11:51.133Z,19.34
2023-03-26T04:14:54.820Z,19.39
2023-03-26T04:17:58.223Z,19.34
2023-03-26T04:21:01.557Z,19.40
2023-03-26T04:24:05.732Z,19.39
2023-03-26T04:27:12.411Z,19.27
2023-03-26T04:30:18.287Z,19.09
2023-03-26T04:33:24.389Z,19.18
2023-03-26T04:36:29.765Z,19.04
2023-03-26T04:39:33.148Z,19.11
2023-03-26T04:42:37.395Z,19.04
2023-03-26T04:45:40.696Z,18.87
2023-03-26T04:48:43.922Z,18.41
2023-03-26T04:51:50.693Z,18.05
2023-03-26T04:54:53.858Z,18.41
2023-03-26T04:57:58.662Z,18.49
2023-03-26T05:01:10.469Z,18.55
2023-03-26T05:04:14.478Z,18.59
2023-03-26T05:07:22.639Z,18.61
2023-03-26T05:10:25.897Z,18.58
2023-03-26T05:13:29.156Z,18.55
2023-03-26T05:16:33.332Z,18.54
2023-03-26T05:19:36.562Z,18.57
2023-03-26T05:22:39.907Z,18.59
2023-03-26T05:25:43.229Z,18.35
2023-03-26T05:28:46.641Z,18.40
2023-03-26T05:31:50.224Z,18.28
2023-03-26T05:34:53.469Z,18.31
2023-03-26T05:37:56.732Z,18.16
2023-03-26T05:41:10.813Z,18.22
2023-03-26T05:44:14.285Z,18.57
2023-03-26T05:47:17.630Z,18.67
2023-03-26T05:50:20.929Z,18.44
2023-03-26T05:53:25.770Z,18.64
2023-03-26T05:56:31.330Z,18.06
2023-03-26T05:59:34.683Z,17.87
2023-03-26T06:02:38.014Z,17.89
2023-03-26T06:05:41.450Z,18.00
2023-03-26T06:08:48.488Z,17.99
2023-03-26T06:12:04.821Z,18.23
2023-03-26T06:15:08.887Z,18.10
2023-03-26T06:18:12.178Z,17.88
2023-03-26T06:21:15.436Z,18.02
2023-03-26T06:24:18.855Z,18.12
2023-03-26T06:27:22.093Z,18.36
2023-03-26T06:30:25.430Z,18.22
2023-03-26T06:33:29.169Z,18.28
2023-03-26T06:36:32.549Z,18.04
2023-03-26T06:39:35.764Z,17.96
2023-03-26T06:43:07.587Z,17.95
2023-03-26T06:46:04.236Z,17.99
2023-03-26T06:49:07.609Z,17.98
2023-03-26T06:52:10.978Z,18.02
2023-03-26T06:55:15.639Z,17.64
2023-03-26T06:58:18.888Z,17.64
2023-03-26T07:01:22.172Z,17.70
2023-03-26T07:04:25.432Z,17.81
2023-03-26T07:07:28.926Z,17.98
2023-03-26T07:10:32.082Z,17.96
2023-03-26T07:13:35.472Z,17.83
2023-03-26T07:16:38.855Z,17.99
2023-03-26T07:19:42.154Z,18.04
2023-03-26T07:22:45.739Z,18.28
2023-03-26T07:25:49.938Z,18.40
2023-03-26T07:29:04.748Z,18.44
2023-03-26T07:32:30.779Z,18.62
2023-03-26T07:35:45.451Z,18.46
2023-03-26T07:39:09.216Z,18.52
2023-03-26T07:42:34.824Z,18.43
2023-03-26T07:45:41.834Z,18.40
2023-03-26T07:48:46.940Z,18.43
2023-03-26T07:51:50.688Z,18.52
2023-03-26T07:54:55.503Z,18.48
2023-03-26T07:58:12.760Z,18.63
2023-03-26T08:01:28.207Z,18.68
2023-03-26T08:04:39.646Z,18.61
2023-03-26T08:07:50.401Z,18.67
2023-03-26T08:11:06.795Z,18.91
2023-03-26T08:14:36.070Z,18.42
2023-03-26T08:18:08.183Z,18.46
2023-03-26T08:21:17.816Z,18.48
2023-03-26T08:24:37.639Z,18.55
2023-03-26T08:27:43.462Z,18.48
2023-03-26T08:30:46.925Z,18.35
2023-03-26T08:33:53.021Z,18.22
2023-03-26T08:36:56.266Z,18.25
2023-03-26T08:40:01.948Z,18.58
2023-03-26T08:43:14.453Z,18.31
2023-03-26T08:46:58.220Z,18.25
2023-03-26T08:50:21.608Z,18.14
2023-03-26T08:53:42.896Z,18.03
2023-03-26T08:57:10.455Z,17.74
2023-03-26T09:00:41.301Z,17.87
2023-03-26T09:04:24.575Z,18.03
2023-03-26T09:07:42.610Z,18.04
2023-03-26T09:10:53.696Z,17.96
2023-03-26T09:14:26.307Z,17.97
2023-03-26T09:17:41.087Z,17.73
2023-03-26T09:21:08.705Z,17.36
2023-03-26T09:24:39.464Z,17.55
2023-03-26T09:28:27.561Z,17.34
2023-03-26T09:31:54.171Z,17.54
2023-03-26T09:35:25.489Z,17.70
2023-03-26T09:38:52.608Z,17.71
2023-03-26T09:42:18.929Z,17.55
2023-03-26T09:45:22.273Z,17.28
2023-03-26T09:48:45.890Z,17.16
2023-03-26T09:52:16.158Z,17.47
2023-03-26T09:55:32.585Z,17.23
2023-03-26T09:58:54.409Z,17.03
2023-03-26T10:02:13.443Z,16.98
2023-03-26T10:05:22.079Z,17.10
2023-03-26T10:08:28.842Z,17.12
2023-03-26T10:11:51.483Z,16.77
2023-03-26T10:15:06.305Z,16.51
2023-03-26T10:18:32.242Z,16.70
2023-03-26T10:21:40.494Z,16.66
2023-03-26T10:24:46.740Z,16.84
2023-03-26T10:28:08.199Z,16.90
2023-03-26T10:31:14.287Z,17.05
2023-03-26T10:34:28.611Z,17.06
2023-03-26T10:37:42.471Z,16.91
2023-03-26T10:41:07.105Z,16.95
2023-03-26T10:44:34.382Z,16.96
2023-03-26T10:48:11.427Z,16.88
2023-03-26T10:51:46.917Z,16.92
2023-03-26T10:54:57.259Z,16.81
2023-03-26T10:58:11.630Z,16.70
2023-03-26T11:01:52.126Z,16.68
2023-03-26T11:05:32.071Z,16.64
2023-03-26T11:08:43.250Z,16.53
2023-03-26T11:12:01.350Z,16.35
2023-03-26T11:15:23.012Z,16.45
2023-03-26T11:18:35.429Z,16.53
2023-03-26T11:21:46.347Z,16.51
2023-03-26T11:25:03.915Z,16.55
2023-03-26T11:28:27.359Z,16.49
2023-03-26T11:31:30.604Z,16.33
2023-03-26T11:34:46.300Z,16.26
2023-03-26T11:37:54.432Z,16.29
2023-03-26T11:40:58.447Z,16.34
2023-03-26T11:44:06.968Z,16.46
2023-03-26T11:47:11.602Z,16.49
2023-03-26T11:50:25.186Z,16.10
2023-03-26T11:53:34.477Z,16.14
2023-03-26T11:57:06.089Z,16.36
2023-03-26T12:00:16.034Z,16.30
2023-03-26T12:03:19.363Z,16.22
2023-03-26T12:06:27.277Z,16.16
2023-03-26T12:09:30.804Z,16.39
2023-03-26T12:12:42.499Z,16.34
2023-03-26T12:15:45.724Z,16.34
2023-03-26T12:19:04.620Z,16.40
2023-03-26T12:22:30.469Z,16.57
2023-03-26T12:25:35.974Z,16.63
2023-03-26T12:28:45.441Z,16.56
2023-03-26T12:31:59.678Z,16.60
2023-03-26T12:35:08.167Z,16.72
2023-03-26T12:38:26.020Z,16.62
2023-03-26T12:44:51.171Z,16.88
2023-03-26T12:45:05.587Z,16.60
2023-03-26T12:48:11.589Z,16.41
2023-03-26T12:52:01.702Z,16.46
2023-03-26T12:55:41.408Z,16.77
2023-03-26T12:59:14.768Z,17.04
2023-03-26T13:02:26.934Z,17.21
2023-03-26T13:05:35.804Z,17.45
2023-03-26T13:08:57.168Z,17.60
2023-03-26T13:12:14.363Z,17.52
2023-03-26T13:15:25.413Z,17.75
2023-03-26T13:18:31.879Z,17.76
2023-03-26T13:21:38.485Z,17.81
2023-03-26T13:25:03.081Z,17.74
2023-03-26T13:28:16.513Z,17.91
2023-03-26T13:31:40.168Z,18.15
2023-03-26T13:35:06.374Z,18.18
2023-03-26T13:38:16.278Z,18.39
2023-03-26T13:42:02.780Z,18.72
2023-03-26T13:45:18.983Z,18.82
2023-03-26T13:48:33.433Z,18.73
2023-03-26T13:51:45.651Z,18.63
2023-03-26T13:55:37.955Z,19.08
2023-03-26T13:59:04.276Z,19.02
2023-03-26T14:02:14.878Z,19.15
2023-03-26T14:05:33.743Z,19.49
2023-03-26T14:08:44.372Z,19.69
2023-03-26T14:11:50.692Z,19.87
2023-03-26T14:15:24.540Z,19.90
2023-03-26T14:18:55.403Z,20.03
2023-03-26T14:22:19.351Z,19.83
2023-03-26T14:25:36.150Z,19.82
2023-03-26T14:29:21.131Z,20.14
2023-03-26T14:32:48.384Z,20.43
2023-03-26T14:36:13.728Z,20.74
2023-03-26T14:39:28.821Z,21.12
2023-03-26T14:42:43.152Z,20.97
2023-03-26T14:46:13.327Z,21.19
2023-03-26T14:49:47.070Z,21.12
2023-03-26T14:53:00.920Z,20.94
2023-03-26T14:56:48.658Z,20.67
2023-03-26T15:00:06.909Z,20.91
2023-03-26T15:03:48.478Z,20.91
2023-03-26T15:07:21.926Z,21.04
2023-03-26T15:10:43.865Z,21.35
2023-03-26T15:13:56.061Z,21.37
2023-03-26T15:17:20.949Z,21.77
2023-03-26T15:20:52.145Z,22.15
2023-03-26T15:24:22.596Z,22.33
2023-03-26T15:27:37.660Z,22.60
2023-03-26T15:31:09.084Z,22.35
2023-03-26T15:34:40.071Z,22.40
2023-03-26T15:38:11.274Z,23.04
2023-03-26T15:41:40.716Z,23.54
2023-03-26T15:44:57.868Z,23.31
2023-03-26T15:48:43.707Z,23.20
2023-03-26T15:51:47.352Z,23.25
2023-03-26T15:55:11.337Z,23.73
2023-03-26T15:58:42.113Z,23.80
2023-03-26T16:02:11.119Z,24.62
2023-03-26T16:05:42.698Z,24.86
2023-03-26T16:09:16.556Z,24.48
2023-03-26T16:12:47.466Z,24.57
2023-03-26T16:15:58.159Z,24.50
2023-03-26T16:19:19.961Z,24.75
2023-03-26T16:22:44.421Z,24.31
2023-03-26T16:26:06.311Z,24.64
2023-03-26T16:29:15.576Z,24.82
2023-03-26T16:32:35.928Z,24.83
2023-03-26T16:35:56.298Z,24.52
2023-03-26T16:39:08.212Z,24.30
2023-03-26T16:42:37.155Z,24.45
2023-03-26T16:45:45.631Z,24.57
2023-03-26T16:48:56.563Z,24.50
2023-03-26T16:52:42.295Z,24.60
2023-03-26T16:55:56.927Z,24.91
2023-03-26T16:59:29.355Z,25.00
2023-03-26T17:02:49.509Z,25.12
2023-03-26T17:05:55.817Z,25.16
2023-03-26T17:09:03.189Z,25.11
2023-03-26T17:12:41.718Z,25.66
2023-03-26T17:16:08.100Z,25.09
2023-03-26T17:19:31.413Z,24.95
2023-03-26T17:22:38.153Z,24.89
2023-03-26T17:26:14.054Z,25.23
2023-03-26T17:29:33.726Z,25.21
2023-03-26T17:33:04.749Z,25.18
2023-03-26T17:36:28.546Z,24.59
2023-03-26T17:39:41.093Z,25.18
2023-03-26T17:43:08.010Z,25.08
2023-03-26T17:46:36.852Z,24.94
2023-03-26T17:49:40.667Z,25.20
2023-03-26T17:53:25.143Z,24.91
2023-03-26T17:56:30.581Z,25.23
2023-03-26T17:59:34.111Z,25.11
2023-03-26T18:02:40.639Z,24.74
2023-03-26T18:05:43.906Z,24.74
2023-03-26T18:09:04.949Z,24.59
2023-03-26T18:12:31.788Z,24.33
2023-03-26T18:15:41.525Z,24.21
2023-03-26T18:18:59.395Z,24.18
2023-03-26T18:22:06.458Z,24.22
2023-03-26T18:25:27.952Z,24.27
2023-03-26T18:28:43.001Z,24.46
2023-03-26T18:31:50.033Z,24.15
2023-03-26T18:35:02.229Z,24.42
2023-03-26T18:38:05.708Z,24.26
2023-03-26T18:41:26.761Z,24.40
2023-03-26T18:44:32.322Z,24.11
2023-03-26T18:47:35.650Z,24.00
2023-03-26T18:50:41.924Z,24.17
2023-03-26T18:53:53.932Z,24.10
2023-03-26T18:56:58.416Z,24.08
2023-03-26T19:00:18.334Z,23.97
2023-03-26T19:03:23.325Z,23.56
2023-03-26T19:06:27.094Z,23.68
2023-03-26T19:09:32.800Z,23.83
2023-03-26T19:12:36.042Z,23.45
2023-03-26T19:15:39.573Z,23.53
2023-03-26T19:18:44.115Z,23.70
2023-03-26T19:21:47.821Z,23.65
2023-03-26T19:24:56.898Z,23.19
2023-03-26T19:28:00.276Z,22.89
2023-03-26T19:31:17.465Z,22.91
2023-03-26T19:34:28.065Z,22.93
2023-03-26T19:37:32.262Z,23.07
2023-03-26T19:40:35.552Z,23.09
2023-03-26T19:43:38.806Z,22.84
2023-03-26T19:46:53.586Z,22.96
2023-03-26T19:49:59.992Z,22.96
2023-03-26T19:53:21.588Z,22.84
2023-03-26T19:56:25.387Z,22.69
2023-03-26T19:59:29.019Z,22.44
2023-03-26T20:02:32.505Z,22.46
2023-03-26T20:05:36.031Z,22.39
2023-03-26T20:08:39.423Z,22.48
2023-03-26T20:11:44.139Z,22.22
2023-03-26T20:14:48.589Z,22.37
2023-03-26T20:17:51.933Z,22.30
2023-03-26T20:20:55.480Z,22.31
2023-03-26T20:24:02.450Z,22.45
2023-03-26T20:27:05.291Z,22.42
2023-03-26T20:30:12.125Z,22.35
2023-03-26T20:33:24.360Z,22.48
2023-03-26T20:36:34.173Z,22.75
2023-03-26T20:39:38.572Z,22.63
2023-03-26T20:42:42.792Z,22.56
2023-03-26T20:45:51.632Z,22.72
2023-03-26T20:48:56.101Z,22.44
2023-03-26T20:51:59.747Z,22.17
2023-03-26T20:55:03.030Z,22.47
2023-03-26T20:58:06.194Z,22.07
2023-03-26T21:01:15.784Z,22.40
2023-03-26T21:04:20.266Z,21.95
2023-03-26T21:07:24.155Z,21.79
2023-03-26T21:10:28.766Z,21.70
2023-03-26T21:13:40.404Z,21.71
2023-03-26T21:16:43.905Z,21.88
2023-03-26T21:19:47.925Z,21.89
2023-03-26T21:23:02.528Z,21.25
2023-03-26T21:26:10.912Z,20.88
2023-03-26T21:29:14.361Z,20.69
2023-03-26T21:32:17.947Z,20.50
2023-03-26T21:35:21.956Z,20.50
2023-03-26T21:38:25.802Z,20.70
2023-03-26T21:41:37.284Z,20.64
2023-03-26T21:44:41.034Z,20.55
2023-03-26T21:47:46.844Z,20.92
2023-03-26T21:50:50.923Z,20.72
2023-03-26T21:53:54.631Z,21.09
2023-03-26T21:57:25.808Z,21.00
2023-03-26T22:00:56.562Z,21.77
2023-03-26T22:04:07.337Z,21.20
2023-03-26T22:07:26.750Z,21.01
2023-03-26T22:10:31.267Z,21.40
2023-03-26T22:13:34.683Z,20.66
2023-03-26T22:16:37.982Z,20.57
2023-03-26T22:19:41.328Z,20.56
2023-03-26T22:22:45.210Z,20.79
2023-03-26T22:25:50.700Z,20.76
2023-03-26T22:28:55.233Z,20.71
2023-03-26T22:31:58.772Z,20.62
2023-03-26T22:35:02.411Z,20.65
2023-03-26T22:38:06.148Z,20.26
2023-03-26T22:41:09.436Z,20.52
2023-03-26T22:44:19.725Z,20.12
2023-03-26T22:47:23.863Z,20.09
2023-03-26T22:50:27.135Z,20.25
2023-03-26T22:53:30.894Z,20.05
2023-03-26T22:56:34.209Z,20.30
2023-03-26T22:59:37.484Z,20.28
2023-03-26T23:02:41.387Z,20.26
2023-03-26T23:05:44.671Z,20.30
2023-03-26T23:08:47.966Z,20.40
2023-03-26T23:11:51.356Z,20.59
2023-03-26T23:14:54.620Z,20.43
2023-03-26T23:17:58.825Z,20.16
2023-03-26T23:21:02.049Z,20.23
2023-03-26T23:24:06.019Z,20.47
2023-03-26T23:27:09.692Z,20.55
2023-03-26T23:30:13.609Z,20.64
2023-03-26T23:33:16.798Z,20.62
2023-03-26T23:36:21.941Z,20.41
2023-03-26T23:39:25.265Z,20.49
2023-03-26T23:42:29.763Z,20.42
2023-03-26T23:45:33.398Z,20.38
2023-03-26T23:48:37.484Z,20.49
2023-03-26T23:51:40.773Z,20.11
2023-03-26T23:54:44.131Z,20.25
2023-03-26T23:57:47.504Z,20.32
